Monday, June 18, 2018, 8:43 PM EDT
Back to Local

KNGU, Norfolk, Naval Air Station

Location: Norfolk, VA, United States Lat: 36.934
Local Time: 8:43 PM EDT ( 0:43 GMT) Lon: -76.296
Time Zone: US/Eastern Elev: 13 ft

Show me the last for .
Show Decoded

2018-06-18 19:59 METAR KNGU 182359Z 00000KT 8SM FEW055 BKN280 28/23 A2995 RMK AO2 SLP140
                 T02830228 10306 20283 58017 =
2018-06-18 18:59 METAR KNGU 182259Z VRB03KT 9SM FEW050 BKN250 30/22 A2996 RMK AO2 SLP146
                 T03000217 =
2018-06-18 17:59 METAR KNGU 182159Z 09006KT 8SM FEW040 BKN260 29/23 A2998 RMK AO2 SLP151
                 T02940228 =
2018-06-18 16:59 METAR KNGU 182059Z 07006KT 8SM SCT040 BKN250 29/23 A2999 RMK AO2 SLP157
                 T02940228 58015 =
2018-06-18 15:59 METAR KNGU 181959Z 06008KT 8SM SCT030 BKN250 30/23 A3001 RMK AO2 SLP161
                 T03000233 =
2018-06-18 14:59 METAR KNGU 181859Z 04007KT 8SM SCT030 BKN210 29/23 A3003 RMK AO2 SLP169
                 T02940233 =
2018-06-18 13:59 METAR KNGU 181759Z 02008KT 7SM SCT020 BKN280 29/23 A3004 RMK AO2 SLP171
                 T02940233 10300 20256 58007 =
2018-06-18 12:59 METAR KNGU 181659Z 30004KT 7SM SCT016 BKN280 29/24 A3005 RMK AO2 SLP175
                 T02940239 =
2018-06-18 12:34 METAR KNGU 181634Z VRB05KT 7SM SCT019 BKN280 29/24 A3006 RMK AO2 T02890239 =
2018-06-18 12:21 METAR KNGU 181621Z 33007KT 7SM BKN015 BKN280 29/24 A3006 RMK AO2 T02890239 =
2018-06-18 11:59 METAR KNGU 181559Z 34007KT 7SM BKN013 28/23 A3006 RMK AO2 SLP179 T02830233 =
2018-06-18 10:59 METAR KNGU 181459Z 02006KT 7SM BKN012 28/23 A3006 RMK AO2 SLP178 T02780233 55003
                 =
2018-06-18 09:59 METAR KNGU 181359Z 34007KT 6SM HZ BKN012 27/23 A3005 RMK AO2 SLP177 T02720233 =
2018-06-18 08:59 METAR KNGU 181259Z 34005KT 6SM BR BKN011 27/23 A3006 RMK AO2 SLP180 T02670228 =
2018-06-18 07:59 METAR KNGU 181159Z 00000KT 7SM BKN010 26/22 A3007 RMK AO2 SLP182 T02560222 10256
                 20222 53002 =
2018-06-18 07:52 METAR KNGU 181152Z 00000KT 7SM BKN011 26/23 A3007 RMK AO2 T02560228 =
2018-06-18 06:59 METAR KNGU 181059Z 20003KT 6SM BR FEW100 BKN300 24/22 A3006 RMK AO2 SLP179
                 T02440222 =
2018-06-18 05:59 METAR KNGU 180959Z 00000KT 6SM BR FEW065 FEW250 23/21 A3006 RMK AO2 SLP179
                 T02280211 =
2018-06-18 04:59 METAR KNGU 180859Z 17004KT 7SM FEW065 FEW100 23/21 A3006 RMK AO2 SLP180
                 T02280211 53005 =
2018-06-18 03:59 METAR KNGU 180759Z 00000KT 9SM CLR 23/21 A3005 RMK AO2 SLP174 OCNL LTGIC DSNT S
                 CB DSNT S T02330211 =
2018-06-18 02:59 METAR KNGU 180659Z 00000KT 10SM CLR 24/21 A3005 RMK AO2 SLP176 OCNL LTGIC DSNT S
                 T02440211 =
2018-06-18 01:59 METAR KNGU 180559Z 21004KT 9SM CLR 24/21 A3005 RMK AO2 SLP175 T02390211 10283
                 20228 58009 =
2018-06-18 00:59 METAR KNGU 180459Z 21003KT 9SM SCT015 SCT100 24/22 A3008 RMK AO2 SLP184
                 T02440217 403170222 =
2018-06-17 23:59 METAR KNGU 180359Z 00000KT 9SM SCT100 25/22 A3008 RMK AO2 SLP184 T02500222 =
2018-06-17 22:59 METAR KNGU 180259Z 22003KT 9SM BKN095 26/23 A3008 RMK AO2 SLP184 T02610228 51012
                 =
2018-06-17 21:59 METAR KNGU 180159Z 07004KT 9SM BKN090 27/23 A3007 RMK AO2 SLP183 T2 SET
                 T02670233 =
2018-06-17 20:59 METAR KNGU 180059Z 16004KT 10SM SCT050 BKN080 BKN300 28/22 A3006 RMK AO2 SLP180
                 T2 SET T02780222 =

Support USWX by starting your Amazon purchase here.